الصفحة الرئيسية
METAR-TAF:

METAR-TAF

مطار :

Igloolik, نونافوت, كندا

دائرة عرض: 69-22N, خط طول: 081-49W, ارتفاع: 51 متر

مراقبة الطقس الحالي

تاريخ ووقت الإصدار 20ساعات و 14 دقيقة قبل الساعة 21:00UTC
ريح 5 عقدة من الشمال/الشمال الشرقي
درجة الحرارة 3°درجة مئوية
الرطوبة 81%
ضغط 1008 hPa
الرؤية: 24.1 كم
غيوم متفرقة على ارتفاع 23000 قدم

METAR: CYGT 142100Z 03005KT 15SM SCT230 03/M00 A2977 RMK CI4 LAST STFD OBS/NXT/151500Z SLP087

زمن: 13:14 (17:14 UTC)

توقعات

تاريخ ووقت الإصدار 22ساعات و 34 دقيقة قبل الساعة 18:40UTC
التوقعات صالحة من14 الساعة 19 UTC إلى 14 الساعة 21 UTC
ريح 8 عقدة من الشمال/الشمال الشرقي
الرؤية: 10 كم
غيوم متفرقة على ارتفاع 22000 قدم

TAF: CYGT 141840Z 1419/1421 02008KT P6SM SCT220 RMK NXT FCST BY 151600Z

أرصاد الطقس والتوقعات من أكثر من 4000 مطار (تقارير الطقس للمطار METAR والتنبؤ بالطقس بالمطارTAF).

المحطات المتاحة هي النقط الصفراء والحمراء على الخريطة.

حرك المؤشر فوق النقطة لمعرفة اسم المحطة.

ثم انقر لمعرفة أرصاد وتوقعات الطقس.

لتغيير الخارطة: اضغط على الأزرار الخضراء مع رمز الصليب الأسود للتكبير. على الزر الأخضر مع شرطة للتصغير، أو على الأسهم الخضراء للخرائط المجاورة.


METAR-TAF: